createdAt,value
2023-01-08T00:00:10.208Z,68.03
2023-01-08T00:02:39.350Z,68.07
2023-01-08T00:05:06.391Z,68.17
2023-01-08T00:07:32.904Z,68.36
2023-01-08T00:09:59.512Z,68.38
2023-01-08T00:12:25.957Z,68.50
2023-01-08T00:14:52.596Z,68.44
2023-01-08T00:17:19.145Z,68.73
2023-01-08T00:19:45.647Z,68.94
2023-01-08T00:22:12.153Z,68.93
2023-01-08T00:24:38.688Z,69.31
2023-01-08T00:27:05.159Z,69.21
2023-01-08T00:29:31.776Z,69.43
2023-01-08T00:31:58.656Z,69.69
2023-01-08T00:34:25.153Z,69.75
2023-01-08T00:36:51.701Z,69.75
2023-01-08T00:39:18.193Z,69.84
2023-01-08T00:41:44.714Z,70.09
2023-01-08T00:44:11.404Z,70.12
2023-01-08T00:46:37.940Z,69.98
2023-01-08T00:49:04.545Z,69.85
2023-01-08T00:51:31.151Z,69.76
2023-01-08T00:53:57.775Z,69.68
2023-01-08T00:56:24.260Z,69.50
2023-01-08T00:58:50.864Z,69.42
2023-01-08T01:01:17.872Z,69.18
2023-01-08T01:03:44.566Z,68.94
2023-01-08T01:06:12.493Z,68.70
2023-01-08T01:08:39.432Z,68.80
2023-01-08T01:11:11.515Z,68.64
2023-01-08T01:13:37.990Z,68.59
2023-01-08T01:16:05.244Z,68.39
2023-01-08T01:18:32.062Z,68.44
2023-01-08T01:20:58.906Z,68.40
2023-01-08T01:23:25.810Z,68.33
2023-01-08T01:25:52.332Z,68.32
2023-01-08T01:28:18.892Z,68.38
2023-01-08T01:30:45.451Z,68.32
2023-01-08T01:33:12.143Z,68.33
2023-01-08T01:35:38.659Z,68.38
2023-01-08T01:38:05.135Z,68.49
2023-01-08T01:40:31.642Z,68.50
2023-01-08T01:42:58.159Z,68.25
2023-01-08T01:45:27.555Z,68.23
2023-01-08T01:47:59.777Z,67.82
2023-01-08T01:50:36.726Z,67.50
2023-01-08T01:53:05.366Z,68.41
2023-01-08T01:55:32.508Z,68.33
2023-01-08T01:58:08.472Z,67.58
2023-01-08T02:00:35.243Z,68.40
2023-01-08T02:03:02.259Z,68.25
2023-01-08T02:06:11.090Z,67.15
2023-01-08T02:09:14.311Z,67.33
2023-01-08T02:12:01.519Z,67.55
2023-01-08T02:14:41.244Z,67.48
2023-01-08T02:17:11.731Z,67.84
2023-01-08T02:19:45.003Z,67.64
2023-01-08T02:22:29.873Z,67.87
2023-01-08T02:25:07.022Z,67.22
2023-01-08T02:27:35.741Z,67.85
2023-01-08T02:30:04.148Z,67.70
2023-01-08T02:32:38.221Z,67.32
2023-01-08T02:35:06.708Z,67.81
2023-01-08T02:37:33.437Z,67.84
2023-01-08T02:40:18.644Z,67.17
2023-01-08T02:43:14.647Z,67.23
2023-01-08T02:45:47.668Z,67.21
2023-01-08T02:48:29.589Z,67.16
2023-01-08T02:51:03.940Z,67.74
2023-01-08T02:53:37.548Z,67.47
2023-01-08T02:56:09.090Z,67.87
2023-01-08T02:58:38.549Z,68.07
2023-01-08T03:01:09.348Z,67.76
2023-01-08T03:03:38.597Z,67.88
2023-01-08T03:06:09.260Z,67.34
2023-01-08T03:08:39.319Z,67.37
2023-01-08T03:11:09.982Z,67.29
2023-01-08T03:13:47.956Z,67.54
2023-01-08T03:16:29.399Z,67.16
2023-01-08T03:19:19.398Z,67.37
2023-01-08T03:21:46.956Z,67.85
2023-01-08T03:24:17.346Z,67.57
2023-01-08T03:26:46.092Z,67.70
2023-01-08T03:29:17.579Z,67.66
2023-01-08T03:31:46.675Z,67.81
2023-01-08T03:34:15.165Z,67.87
2023-01-08T03:36:46.530Z,67.70
2023-01-08T03:39:26.270Z,67.14
2023-01-08T03:41:57.107Z,68.00
2023-01-08T03:44:23.655Z,68.25
2023-01-08T03:46:54.177Z,67.80
2023-01-08T03:49:24.689Z,68.08
2023-01-08T03:51:51.228Z,68.13
2023-01-08T03:54:25.129Z,67.57
2023-01-08T03:56:51.764Z,68.25
2023-01-08T03:59:18.219Z,68.06
2023-01-08T04:01:44.938Z,68.23
2023-01-08T04:04:11.914Z,68.35
2023-01-08T04:06:38.506Z,68.20
2023-01-08T04:09:05.576Z,68.32
2023-01-08T04:11:32.322Z,68.38
2023-01-08T04:13:58.988Z,68.35
2023-01-08T04:16:25.666Z,68.42
2023-01-08T04:18:52.321Z,68.61
2023-01-08T04:21:18.957Z,68.46
2023-01-08T04:23:45.524Z,68.57
2023-01-08T04:26:12.036Z,68.67
2023-01-08T04:28:38.591Z,68.53
2023-01-08T04:31:07.199Z,68.46
2023-01-08T04:33:34.130Z,68.66
2023-01-08T04:36:00.624Z,68.76
2023-01-08T04:38:27.311Z,68.79
2023-01-08T04:40:58.184Z,68.27
2023-01-08T04:43:25.270Z,68.91
2023-01-08T04:45:52.522Z,69.02
2023-01-08T04:48:19.108Z,68.89
2023-01-08T04:50:45.882Z,69.13
2023-01-08T04:53:12.454Z,68.93
2023-01-08T04:55:39.821Z,69.10
2023-01-08T04:58:06.487Z,69.26
2023-01-08T05:00:33.133Z,69.17
2023-01-08T05:02:59.806Z,69.29
2023-01-08T05:05:26.494Z,69.39
2023-01-08T05:07:53.029Z,69.37
2023-01-08T05:10:19.621Z,69.60
2023-01-08T05:12:46.096Z,69.60
2023-01-08T05:15:12.724Z,69.66
2023-01-08T05:17:39.227Z,69.62
2023-01-08T05:20:06.273Z,69.73
2023-01-08T05:22:32.718Z,69.89
2023-01-08T05:24:59.380Z,69.74
2023-01-08T05:27:25.852Z,69.60
2023-01-08T05:29:52.353Z,69.61
2023-01-08T05:32:19.617Z,69.65
2023-01-08T05:34:46.389Z,69.74
2023-01-08T05:37:12.979Z,69.98
2023-01-08T05:39:39.503Z,70.33
2023-01-08T05:42:06.067Z,70.58
2023-01-08T05:44:32.591Z,70.81
2023-01-08T05:46:59.220Z,70.78
2023-01-08T05:49:25.828Z,71.07
2023-01-08T05:51:52.390Z,70.96
2023-01-08T05:54:19.001Z,71.08
2023-01-08T05:56:45.517Z,70.89
2023-01-08T05:59:12.699Z,70.97
2023-01-08T06:01:39.404Z,70.85
2023-01-08T06:04:06.058Z,70.78
2023-01-08T06:06:32.837Z,71.10
2023-01-08T06:08:59.341Z,70.90
2023-01-08T06:11:26.001Z,70.88
2023-01-08T06:13:52.502Z,70.61
2023-01-08T06:16:22.230Z,70.65
2023-01-08T06:18:48.789Z,70.67
2023-01-08T06:21:15.319Z,70.71
2023-01-08T06:23:41.889Z,70.51
2023-01-08T06:26:08.540Z,70.47
2023-01-08T06:28:35.900Z,70.52
2023-01-08T06:31:03.094Z,70.38
2023-01-08T06:33:30.696Z,70.16
2023-01-08T06:36:02.052Z,69.31
2023-01-08T06:38:33.320Z,69.40
2023-01-08T06:41:03.961Z,69.54
2023-01-08T06:43:30.677Z,70.19
2023-01-08T06:45:57.442Z,70.42
2023-01-08T06:48:25.367Z,70.14
2023-01-08T06:50:52.359Z,68.19
2023-01-08T06:53:19.052Z,70.19
2023-01-08T06:55:45.740Z,70.21
2023-01-08T06:58:12.594Z,70.31
2023-01-08T07:00:39.700Z,70.25
2023-01-08T07:03:06.692Z,69.94
2023-01-08T07:05:33.540Z,70.23
2023-01-08T07:08:00.171Z,70.13
2023-01-08T07:10:26.630Z,70.43
2023-01-08T07:12:53.237Z,70.24
2023-01-08T07:15:19.763Z,69.96
2023-01-08T07:17:46.236Z,69.86
2023-01-08T07:20:12.786Z,69.91
2023-01-08T07:22:39.350Z,70.06
2023-01-08T07:25:06.601Z,70.16
2023-01-08T07:27:33.137Z,70.25
2023-01-08T07:29:59.683Z,70.48
2023-01-08T07:32:26.309Z,70.33
2023-01-08T07:34:52.919Z,70.58
2023-01-08T07:37:19.394Z,70.78
2023-01-08T07:39:45.940Z,70.87
2023-01-08T07:42:12.584Z,70.67
2023-01-08T07:44:39.019Z,70.53
2023-01-08T07:47:05.472Z,70.79
2023-01-08T07:49:32.213Z,70.94
2023-01-08T07:51:58.693Z,71.05
2023-01-08T07:54:25.235Z,71.23
2023-01-08T07:56:54.683Z,70.71
2023-01-08T07:59:21.227Z,71.65
2023-01-08T08:01:47.897Z,71.66
2023-01-08T08:04:15.485Z,71.68
2023-01-08T08:06:41.991Z,71.48
2023-01-08T08:09:08.590Z,71.40
2023-01-08T08:11:35.176Z,71.35
2023-01-08T08:14:01.679Z,71.52
2023-01-08T08:16:28.292Z,71.79
2023-01-08T08:18:54.803Z,71.51
2023-01-08T08:21:21.308Z,71.79
2023-01-08T08:23:47.837Z,71.89
2023-01-08T08:26:14.339Z,72.19
2023-01-08T08:28:40.811Z,72.33
2023-01-08T08:31:07.415Z,72.50
2023-01-08T08:33:33.981Z,72.43
2023-01-08T08:36:00.584Z,72.49
2023-01-08T08:38:27.107Z,72.45
2023-01-08T08:40:53.696Z,72.59
2023-01-08T08:43:20.258Z,72.77
2023-01-08T08:45:46.756Z,72.94
2023-01-08T08:48:13.542Z,73.17
2023-01-08T08:50:40.087Z,73.10
2023-01-08T08:53:06.855Z,73.20
2023-01-08T08:55:34.191Z,73.08
2023-01-08T08:58:13.171Z,69.60
2023-01-08T09:00:41.208Z,73.03
2023-01-08T09:03:13.109Z,71.96
2023-01-08T09:05:39.637Z,73.30
2023-01-08T09:08:06.424Z,73.13
2023-01-08T09:10:32.903Z,73.08
2023-01-08T09:12:59.475Z,72.88
2023-01-08T09:15:25.966Z,72.85
2023-01-08T09:17:57.296Z,71.10
2023-01-08T09:20:25.681Z,72.28
2023-01-08T09:22:52.245Z,72.64
2023-01-08T09:25:19.118Z,72.89
2023-01-08T09:27:45.695Z,73.15
2023-01-08T09:30:12.435Z,73.39
2023-01-08T09:32:38.928Z,73.56
2023-01-08T09:35:06.548Z,73.66
2023-01-08T09:37:33.103Z,73.77
2023-01-08T09:40:02.488Z,73.83
2023-01-08T09:42:30.935Z,73.94
2023-01-08T09:44:59.505Z,73.75
2023-01-08T09:47:30.956Z,73.55
2023-01-08T09:50:02.305Z,72.87
2023-01-08T09:52:31.469Z,74.09
2023-01-08T09:54:58.473Z,74.46
2023-01-08T09:57:25.092Z,74.27
2023-01-08T09:59:51.599Z,74.15
2023-01-08T10:02:24.300Z,72.23
2023-01-08T10:04:59.044Z,71.84
2023-01-08T10:07:28.031Z,73.25
2023-01-08T10:09:55.604Z,73.23
2023-01-08T10:12:31.256Z,70.67
2023-01-08T10:15:05.343Z,69.85
2023-01-08T10:17:38.471Z,70.53
2023-01-08T10:20:18.088Z,69.19
2023-01-08T10:22:45.475Z,72.49
2023-01-08T10:25:15.369Z,71.56
2023-01-08T10:28:06.493Z,70.31
2023-01-08T10:30:32.955Z,72.94
2023-01-08T10:33:05.531Z,70.30
2023-01-08T10:35:35.589Z,71.99
2023-01-08T10:38:02.683Z,73.70
2023-01-08T10:40:41.306Z,68.37
2023-01-08T10:43:13.545Z,73.11
2023-01-08T10:45:40.722Z,74.19
2023-01-08T10:48:15.184Z,74.14
2023-01-08T10:50:41.776Z,74.11
2023-01-08T10:53:24.480Z,68.48
2023-01-08T10:56:05.130Z,68.30
2023-01-08T10:58:41.417Z,68.54
2023-01-08T11:01:28.688Z,67.54
2023-01-08T11:04:04.806Z,69.30
2023-01-08T11:06:43.082Z,69.35
2023-01-08T11:09:23.055Z,66.79
2023-01-08T11:11:50.095Z,73.47
2023-01-08T11:14:27.957Z,70.77
2023-01-08T11:16:55.779Z,73.38
2023-01-08T11:19:32.996Z,67.48
2023-01-08T11:22:05.064Z,68.99
2023-01-08T11:24:39.692Z,67.18
2023-01-08T11:27:30.962Z,66.72
2023-01-08T11:30:12.947Z,65.01
2023-01-08T11:32:57.826Z,64.44
2023-01-08T11:35:29.344Z,68.79
2023-01-08T11:37:58.321Z,70.20
2023-01-08T11:40:47.089Z,64.99
2023-01-08T11:43:50.273Z,64.85
2023-01-08T11:46:25.485Z,66.29
2023-01-08T11:49:27.638Z,66.88
2023-01-08T11:52:03.172Z,71.11
2023-01-08T11:55:02.100Z,69.36
2023-01-08T11:57:58.425Z,67.12
2023-01-08T12:00:53.751Z,64.73
2023-01-08T12:03:33.775Z,70.32
2023-01-08T12:06:12.682Z,67.00
2023-01-08T12:09:02.427Z,55.81
2023-01-08T12:11:34.274Z,67.33
2023-01-08T12:14:18.905Z,63.56
2023-01-08T12:17:04.753Z,65.09
2023-01-08T12:20:04.504Z,62.55
2023-01-08T12:22:49.548Z,69.34
2023-01-08T12:25:51.132Z,64.35
2023-01-08T12:28:39.310Z,64.11
2023-01-08T12:31:24.204Z,65.18
2023-01-08T12:33:56.828Z,66.08
2023-01-08T12:36:49.404Z,64.56
2023-01-08T12:39:22.949Z,65.63
2023-01-08T12:41:52.642Z,67.99
2023-01-08T12:44:26.381Z,64.49
2023-01-08T12:46:57.331Z,67.79
2023-01-08T12:49:32.191Z,65.41
2023-01-08T12:52:08.596Z,64.10
2023-01-08T12:55:17.379Z,63.00
2023-01-08T12:57:58.328Z,64.25
2023-01-08T13:00:45.421Z,63.34
2023-01-08T13:03:17.994Z,66.89
2023-01-08T13:05:44.450Z,67.51
2023-01-08T13:08:29.340Z,62.22
2023-01-08T13:10:56.512Z,66.91
2023-01-08T13:13:32.115Z,62.88
2023-01-08T13:16:18.453Z,62.09
2023-01-08T13:18:58.444Z,63.26
2023-01-08T13:21:29.446Z,63.11
2023-01-08T13:24:05.754Z,62.82
2023-01-08T13:26:35.352Z,65.87
2023-01-08T13:29:24.164Z,60.31
2023-01-08T13:31:51.046Z,66.28
2023-01-08T13:34:37.600Z,61.65
2023-01-08T13:37:04.765Z,66.84
2023-01-08T13:39:37.090Z,65.23
2023-01-08T13:42:25.114Z,59.67
2023-01-08T13:44:56.911Z,61.37
2023-01-08T13:47:31.914Z,61.40
2023-01-08T13:50:00.094Z,65.75
2023-01-08T13:52:31.657Z,65.06
2023-01-08T13:54:59.915Z,65.45
2023-01-08T13:57:34.225Z,63.29
2023-01-08T14:00:01.286Z,66.02
2023-01-08T14:02:33.369Z,65.82
2023-01-08T14:05:01.612Z,66.01
2023-01-08T14:07:28.333Z,66.30
2023-01-08T14:10:07.158Z,63.00
2023-01-08T14:12:34.297Z,66.31
2023-01-08T14:15:00.995Z,66.47
2023-01-08T14:17:31.702Z,63.36
2023-01-08T14:19:59.218Z,66.12
2023-01-08T14:22:33.605Z,62.14
2023-01-08T14:25:06.418Z,62.65
2023-01-08T14:27:34.021Z,66.04
2023-01-08T14:30:00.851Z,66.04
2023-01-08T14:32:30.048Z,65.49
2023-01-08T14:34:59.716Z,64.76
2023-01-08T14:37:26.366Z,65.14
2023-01-08T14:39:54.695Z,65.28
2023-01-08T14:42:33.197Z,60.32
2023-01-08T14:45:04.655Z,61.03
2023-01-08T14:47:38.186Z,59.60
2023-01-08T14:50:06.058Z,64.66
2023-01-08T14:52:33.180Z,61.12
2023-01-08T14:55:02.153Z,65.25
2023-01-08T14:57:29.474Z,64.53
2023-01-08T14:59:58.402Z,63.17
2023-01-08T15:02:30.954Z,62.29
2023-01-08T15:05:15.932Z,60.69
2023-01-08T15:07:54.414Z,63.10
2023-01-08T15:10:44.260Z,57.12
2023-01-08T15:13:25.245Z,59.90
2023-01-08T15:15:56.934Z,59.93
2023-01-08T15:18:23.620Z,61.10
2023-01-08T15:20:51.264Z,61.56
2023-01-08T15:23:27.050Z,57.91
2023-01-08T15:25:55.577Z,61.49
2023-01-08T15:28:22.400Z,62.00
2023-01-08T15:30:49.466Z,61.91
2023-01-08T15:33:20.412Z,62.23
2023-01-08T15:35:48.520Z,62.21
2023-01-08T15:38:15.250Z,60.54
2023-01-08T15:40:41.885Z,62.59
2023-01-08T15:43:13.911Z,60.17
2023-01-08T15:45:43.565Z,62.24
2023-01-08T15:48:10.825Z,62.89
2023-01-08T15:50:43.124Z,59.82
2023-01-08T15:53:18.738Z,58.58
2023-01-08T15:55:45.889Z,62.81
2023-01-08T15:58:13.807Z,63.44
2023-01-08T16:00:42.499Z,62.55
2023-01-08T16:03:09.244Z,63.25
2023-01-08T16:05:36.574Z,63.43
2023-01-08T16:08:04.355Z,63.13
2023-01-08T16:10:31.271Z,63.22
2023-01-08T16:12:57.812Z,61.53
2023-01-08T16:15:24.380Z,62.27
2023-01-08T16:17:51.182Z,61.76
2023-01-08T16:20:17.742Z,61.90
2023-01-08T16:22:44.494Z,61.67
2023-01-08T16:25:11.227Z,61.68
2023-01-08T16:27:37.835Z,61.45
2023-01-08T16:30:06.288Z,61.55
2023-01-08T16:32:32.873Z,62.03
2023-01-08T16:34:59.444Z,62.08
2023-01-08T16:37:25.973Z,62.22
2023-01-08T16:39:52.411Z,62.07
2023-01-08T16:42:18.908Z,62.10
2023-01-08T16:44:45.412Z,62.64
2023-01-08T16:47:11.970Z,62.30
2023-01-08T16:49:40.386Z,62.14
2023-01-08T16:52:08.147Z,61.82
2023-01-08T16:54:34.679Z,61.86
2023-01-08T16:57:01.168Z,62.18
2023-01-08T16:59:27.733Z,62.19
2023-01-08T17:01:54.415Z,62.46
2023-01-08T17:04:21.279Z,62.52
2023-01-08T17:06:47.846Z,62.59
2023-01-08T17:09:14.963Z,62.72
2023-01-08T17:11:42.085Z,63.06
2023-01-08T17:14:09.360Z,63.10
2023-01-08T17:16:36.023Z,63.21
2023-01-08T17:19:02.642Z,63.13
2023-01-08T17:21:29.164Z,63.32
2023-01-08T17:23:55.761Z,63.46
2023-01-08T17:26:22.368Z,63.67
2023-01-08T17:28:48.866Z,63.71
2023-01-08T17:31:17.943Z,63.65
2023-01-08T17:33:45.146Z,64.10
2023-01-08T17:36:17.513Z,61.49
2023-01-08T17:38:44.371Z,64.51
2023-01-08T17:41:11.020Z,64.52
2023-01-08T17:43:38.578Z,64.78
2023-01-08T17:46:06.920Z,65.04
2023-01-08T17:48:33.931Z,65.13
2023-01-08T17:51:00.645Z,65.17
2023-01-08T17:53:27.760Z,65.39
2023-01-08T17:55:54.442Z,65.40
2023-01-08T17:58:21.101Z,65.28
2023-01-08T18:00:47.571Z,65.44
2023-01-08T18:03:14.204Z,65.76
2023-01-08T18:05:40.720Z,65.46
2023-01-08T18:08:07.181Z,65.91
2023-01-08T18:10:33.675Z,65.82
2023-01-08T18:13:00.247Z,66.15
2023-01-08T18:15:26.764Z,66.08
2023-01-08T18:17:53.277Z,66.01
2023-01-08T18:20:20.012Z,66.06
2023-01-08T18:22:46.586Z,66.04
2023-01-08T18:25:13.059Z,65.85
2023-01-08T18:27:39.627Z,66.05
2023-01-08T18:30:06.783Z,65.83
2023-01-08T18:32:34.707Z,65.94
2023-01-08T18:35:01.228Z,66.12
2023-01-08T18:37:27.707Z,66.10
2023-01-08T18:39:54.251Z,66.21
2023-01-08T18:42:20.819Z,65.99
2023-01-08T18:44:47.324Z,66.25
2023-01-08T18:47:14.514Z,66.29
2023-01-08T18:49:41.000Z,66.35
2023-01-08T18:52:07.480Z,66.18
2023-01-08T18:54:35.375Z,66.43
2023-01-08T18:57:02.112Z,66.45
2023-01-08T18:59:28.581Z,66.65
2023-01-08T19:01:55.272Z,66.51
2023-01-08T19:04:21.809Z,66.76
2023-01-08T19:06:48.398Z,66.82
2023-01-08T19:09:15.312Z,66.95
2023-01-08T19:11:41.829Z,66.97
2023-01-08T19:14:08.899Z,67.05
2023-01-08T19:16:35.402Z,67.12
2023-01-08T19:19:01.990Z,67.06
2023-01-08T19:21:28.523Z,66.99
2023-01-08T19:23:55.170Z,66.88
2023-01-08T19:26:21.723Z,67.03
2023-01-08T19:28:48.484Z,66.91
2023-01-08T19:31:18.320Z,65.53
2023-01-08T19:33:45.649Z,67.32
2023-01-08T19:36:12.214Z,67.15
2023-01-08T19:38:39.866Z,67.18
2023-01-08T19:41:07.099Z,67.24
2023-01-08T19:43:33.651Z,67.24
2023-01-08T19:46:06.851Z,64.86
2023-01-08T19:48:34.237Z,67.24
2023-01-08T19:51:07.306Z,65.05
2023-01-08T19:53:33.855Z,67.05
2023-01-08T19:56:04.996Z,65.37
2023-01-08T19:58:31.831Z,66.94
2023-01-08T20:00:58.405Z,67.01
2023-01-08T20:03:25.194Z,66.96
2023-01-08T20:05:52.557Z,66.88
2023-01-08T20:08:19.042Z,67.12
2023-01-08T20:10:45.717Z,67.12
2023-01-08T20:13:12.459Z,67.11
2023-01-08T20:15:38.991Z,66.92
2023-01-08T20:18:05.515Z,66.59
2023-01-08T20:20:32.277Z,66.35
2023-01-08T20:22:58.807Z,66.36
2023-01-08T20:25:25.397Z,66.65
2023-01-08T20:27:51.938Z,66.85
2023-01-08T20:30:18.602Z,66.55
2023-01-08T20:32:45.150Z,66.55
2023-01-08T20:35:11.712Z,66.69
2023-01-08T20:37:38.327Z,66.71
2023-01-08T20:40:05.444Z,67.05
2023-01-08T20:42:34.480Z,67.14
2023-01-08T20:45:01.540Z,66.97
2023-01-08T20:47:30.915Z,67.19
2023-01-08T20:50:00.362Z,67.17
2023-01-08T20:52:31.026Z,65.91
2023-01-08T20:54:57.705Z,67.32
2023-01-08T20:57:24.320Z,67.47
2023-01-08T20:59:54.006Z,65.95
2023-01-08T21:02:20.553Z,67.50
2023-01-08T21:04:47.032Z,67.44
2023-01-08T21:07:13.630Z,67.39
2023-01-08T21:09:40.474Z,67.49
2023-01-08T21:12:07.021Z,67.45
2023-01-08T21:14:33.582Z,67.42
2023-01-08T21:17:00.063Z,67.46
2023-01-08T21:19:26.532Z,67.59
2023-01-08T21:21:53.169Z,67.40
2023-01-08T21:24:19.759Z,67.42
2023-01-08T21:26:46.618Z,67.40
2023-01-08T21:29:13.871Z,67.32
2023-01-08T21:31:40.534Z,67.22
2023-01-08T21:34:07.333Z,67.20
2023-01-08T21:36:34.220Z,67.24
2023-01-08T21:39:01.741Z,67.19
2023-01-08T21:41:30.003Z,66.81
2023-01-08T21:43:57.770Z,66.88
2023-01-08T21:46:27.211Z,66.77
2023-01-08T21:48:56.291Z,67.02
2023-01-08T21:51:23.018Z,67.14
2023-01-08T21:53:51.953Z,67.02
2023-01-08T21:56:18.529Z,67.34
2023-01-08T21:58:48.016Z,65.46
2023-01-08T22:01:14.755Z,67.28
2023-01-08T22:03:44.199Z,67.13
2023-01-08T22:06:10.949Z,66.82
2023-01-08T22:08:37.732Z,66.89
2023-01-08T22:11:09.445Z,65.06
2023-01-08T22:13:36.772Z,67.24
2023-01-08T22:16:05.437Z,67.11
2023-01-08T22:18:32.208Z,67.09
2023-01-08T22:21:01.025Z,66.96
2023-01-08T22:23:27.936Z,67.20
2023-01-08T22:25:54.462Z,67.22
2023-01-08T22:28:20.969Z,67.62
2023-01-08T22:30:47.631Z,67.57
2023-01-08T22:33:14.198Z,67.58
2023-01-08T22:35:40.779Z,67.60
2023-01-08T22:38:07.433Z,67.65
2023-01-08T22:40:33.963Z,67.41
2023-01-08T22:43:00.517Z,67.00
2023-01-08T22:45:27.081Z,66.26
2023-01-08T22:47:53.540Z,65.20
2023-01-08T22:50:20.107Z,65.59
2023-01-08T22:52:46.545Z,65.93
2023-01-08T22:55:13.145Z,66.04
2023-01-08T22:57:39.614Z,66.39
2023-01-08T23:00:08.008Z,66.21
2023-01-08T23:02:36.026Z,66.72
2023-01-08T23:05:03.055Z,66.69
2023-01-08T23:07:29.695Z,66.58
2023-01-08T23:09:56.252Z,67.04
2023-01-08T23:12:22.921Z,67.21
2023-01-08T23:14:49.412Z,67.37
2023-01-08T23:17:15.944Z,67.49
2023-01-08T23:19:42.589Z,67.51
2023-01-08T23:22:09.287Z,67.72
2023-01-08T23:24:35.757Z,67.61
2023-01-08T23:27:02.274Z,67.82
2023-01-08T23:29:28.736Z,67.94
2023-01-08T23:31:56.565Z,67.88
2023-01-08T23:34:23.599Z,67.96
2023-01-08T23:36:50.573Z,67.95
2023-01-08T23:39:17.340Z,68.16
2023-01-08T23:41:43.828Z,67.98
2023-01-08T23:44:14.069Z,66.85
2023-01-08T23:46:40.799Z,67.20
2023-01-08T23:49:07.787Z,67.45
2023-01-08T23:51:35.050Z,67.43
2023-01-08T23:54:01.612Z,67.36
2023-01-08T23:56:28.229Z,67.29
2023-01-08T23:58:54.809Z,67.26
